createdAt,value
2018-03-31T00:01:00.246Z,86.63
2018-03-31T00:03:27.330Z,85.62
2018-03-31T00:05:54.356Z,85.29
2018-03-31T00:08:21.476Z,85.24
2018-03-31T00:10:48.513Z,85.23
2018-03-31T00:13:15.547Z,85.55
2018-03-31T00:15:42.652Z,86.24
2018-03-31T00:18:09.675Z,86.98
2018-03-31T00:20:36.684Z,87.79
2018-03-31T00:23:03.766Z,88.41
2018-03-31T00:25:30.808Z,88.61
2018-03-31T00:27:57.826Z,88.67
2018-03-31T00:30:24.882Z,88.80
2018-03-31T00:32:51.911Z,89.36
2018-03-31T00:35:18.975Z,89.65
2018-03-31T00:37:46.028Z,89.85
2018-03-31T00:40:13.071Z,89.46
2018-03-31T00:42:40.078Z,89.05
2018-03-31T00:45:07.124Z,88.71
2018-03-31T00:47:34.152Z,88.51
2018-03-31T00:50:01.190Z,88.71
2018-03-31T00:52:28.241Z,88.64
2018-03-31T00:54:55.259Z,88.60
2018-03-31T00:57:22.306Z,87.69
2018-03-31T00:59:50.196Z,87.11
2018-03-31T01:02:17.369Z,86.85
2018-03-31T01:04:44.401Z,87.30
2018-03-31T01:07:12.544Z,87.87
2018-03-31T01:09:39.697Z,88.65
2018-03-31T01:12:06.769Z,88.96
2018-03-31T01:14:33.883Z,88.73
2018-03-31T01:17:01.002Z,88.83
2018-03-31T01:19:28.075Z,88.94
2018-03-31T01:21:55.129Z,89.02
2018-03-31T01:24:22.759Z,88.77
2018-03-31T01:26:49.765Z,88.60
2018-03-31T01:29:17.833Z,88.20
2018-03-31T01:31:44.876Z,88.03
2018-03-31T01:34:13.839Z,88.06
2018-03-31T01:36:40.895Z,87.64
2018-03-31T01:39:07.911Z,87.21
2018-03-31T01:41:35.005Z,87.84
2018-03-31T01:44:02.029Z,87.45
2018-03-31T01:46:29.074Z,87.24
2018-03-31T01:48:56.341Z,86.88
2018-03-31T01:51:23.906Z,86.78
2018-03-31T01:53:51.325Z,87.00
2018-03-31T01:56:18.401Z,86.68
2018-03-31T01:58:45.486Z,85.97
2018-03-31T02:01:12.505Z,85.91
2018-03-31T02:03:39.766Z,86.89
2018-03-31T02:06:09.180Z,87.84
2018-03-31T02:08:36.210Z,87.54
2018-03-31T02:11:03.226Z,87.31
2018-03-31T02:13:32.656Z,86.68
2018-03-31T02:15:59.685Z,86.31
2018-03-31T02:18:26.718Z,86.14
2018-03-31T02:20:54.489Z,86.46
2018-03-31T02:23:22.633Z,86.25
2018-03-31T02:25:51.917Z,86.37
2018-03-31T02:28:19.030Z,86.90
2018-03-31T02:30:46.112Z,87.70
2018-03-31T02:33:13.874Z,88.11
2018-03-31T02:35:42.147Z,87.52
2018-03-31T02:38:09.445Z,87.43
2018-03-31T02:40:37.238Z,87.74
2018-03-31T02:43:04.996Z,87.90
2018-03-31T02:45:33.110Z,88.32
2018-03-31T02:48:00.676Z,88.71
2018-03-31T02:50:28.186Z,88.87
2018-03-31T02:52:55.700Z,88.73
2018-03-31T02:55:22.752Z,89.13
2018-03-31T02:57:50.789Z,89.20
2018-03-31T03:00:17.804Z,89.54
2018-03-31T03:02:44.827Z,89.56
2018-03-31T03:05:11.901Z,89.38
2018-03-31T03:07:38.904Z,88.87
2018-03-31T03:10:05.908Z,88.39
2018-03-31T03:12:32.937Z,87.83
2018-03-31T03:14:59.923Z,87.50
2018-03-31T03:17:26.931Z,87.04
2018-03-31T03:19:53.957Z,87.15
2018-03-31T03:22:21.018Z,87.35
2018-03-31T03:24:48.066Z,87.57
2018-03-31T03:27:15.082Z,87.62
2018-03-31T03:29:42.088Z,87.54
2018-03-31T03:32:09.109Z,87.79
2018-03-31T03:34:36.078Z,88.40
2018-03-31T03:37:03.097Z,88.27
2018-03-31T03:39:30.100Z,88.30
2018-03-31T03:41:57.120Z,88.83
2018-03-31T03:44:24.130Z,88.74
2018-03-31T03:46:51.235Z,88.89
2018-03-31T03:49:18.237Z,88.91
2018-03-31T03:51:45.739Z,88.96
2018-03-31T03:54:12.764Z,88.73
2018-03-31T03:56:39.769Z,88.82
2018-03-31T03:59:06.781Z,89.29
2018-03-31T04:01:33.807Z,89.57
2018-03-31T04:04:01.066Z,89.34
2018-03-31T04:06:28.022Z,89.15
2018-03-31T04:08:55.028Z,88.77
2018-03-31T04:11:22.042Z,88.89
2018-03-31T04:13:49.039Z,89.16
2018-03-31T04:16:16.085Z,89.28
2018-03-31T04:21:14.199Z,89.14
2018-03-31T04:23:41.162Z,89.20
2018-03-31T04:26:08.123Z,88.91
2018-03-31T04:28:35.087Z,88.72
2018-03-31T04:31:02.029Z,88.71
2018-03-31T04:33:28.981Z,88.74
2018-03-31T04:35:55.958Z,88.79
2018-03-31T04:38:22.913Z,89.99
2018-03-31T04:40:49.892Z,90.76
2018-03-31T04:43:16.865Z,89.93
2018-03-31T04:45:43.894Z,90.09
2018-03-31T04:48:10.901Z,89.80
2018-03-31T04:50:37.954Z,89.45
2018-03-31T04:53:05.032Z,90.22
2018-03-31T04:55:33.018Z,90.21
2018-03-31T04:58:00.059Z,90.08
2018-03-31T05:00:27.048Z,90.38
2018-03-31T05:02:54.132Z,90.04
2018-03-31T05:05:21.137Z,90.25
2018-03-31T05:07:48.157Z,90.23
2018-03-31T05:10:15.212Z,90.73
2018-03-31T05:12:42.240Z,89.90
2018-03-31T05:15:09.267Z,89.44
2018-03-31T05:17:36.571Z,89.79
2018-03-31T05:20:03.595Z,90.12
2018-03-31T05:22:30.613Z,90.52
2018-03-31T05:24:57.695Z,90.54
2018-03-31T05:27:24.715Z,89.57
2018-03-31T05:29:51.778Z,89.60
2018-03-31T05:32:18.781Z,89.25
2018-03-31T05:34:45.771Z,89.17
2018-03-31T05:37:12.843Z,89.37
2018-03-31T05:39:39.865Z,89.31
2018-03-31T05:42:06.931Z,89.52
2018-03-31T05:44:33.935Z,89.97
2018-03-31T05:47:00.981Z,89.45
2018-03-31T05:49:28.017Z,89.06
2018-03-31T05:51:55.018Z,88.98
2018-03-31T05:54:22.034Z,88.59
2018-03-31T05:56:49.084Z,88.41
2018-03-31T05:59:16.119Z,88.81
2018-03-31T06:01:43.170Z,86.75
2018-03-31T06:04:10.198Z,84.05
2018-03-31T06:06:37.218Z,83.02
2018-03-31T06:09:04.871Z,82.08
2018-03-31T06:11:31.890Z,81.86
2018-03-31T06:13:58.932Z,81.46
2018-03-31T06:16:26.018Z,80.99
2018-03-31T06:18:53.037Z,80.99
2018-03-31T06:21:20.058Z,80.24
2018-03-31T06:23:47.156Z,80.28
2018-03-31T06:26:14.174Z,80.52
2018-03-31T06:28:41.186Z,81.03
2018-03-31T06:31:08.192Z,80.93
2018-03-31T06:33:35.232Z,81.88
2018-03-31T06:36:02.387Z,82.31
2018-03-31T06:38:29.496Z,82.54
2018-03-31T06:40:56.518Z,82.55
2018-03-31T06:43:23.582Z,82.29
2018-03-31T06:45:50.589Z,82.12
2018-03-31T06:48:17.631Z,81.83
2018-03-31T06:50:44.678Z,82.12
2018-03-31T06:53:11.717Z,82.51
2018-03-31T06:55:38.739Z,82.04
2018-03-31T06:58:05.793Z,82.16
2018-03-31T07:00:32.826Z,81.23
2018-03-31T07:02:59.882Z,80.80
2018-03-31T07:05:26.916Z,81.18
2018-03-31T07:07:53.940Z,81.14
2018-03-31T07:10:21.043Z,80.18
2018-03-31T07:12:48.060Z,80.22
2018-03-31T07:15:15.105Z,80.75
2018-03-31T07:17:42.175Z,80.67
2018-03-31T07:20:09.252Z,80.47
2018-03-31T07:22:36.247Z,80.38
2018-03-31T07:25:03.271Z,79.79
2018-03-31T07:27:30.283Z,78.99
2018-03-31T07:29:57.288Z,78.65
2018-03-31T07:32:24.315Z,78.97
2018-03-31T07:34:51.414Z,78.52
2018-03-31T07:37:18.442Z,80.00
2018-03-31T07:39:45.470Z,79.32
2018-03-31T07:42:12.759Z,80.28
2018-03-31T07:44:39.823Z,80.92
2018-03-31T07:47:06.848Z,81.03
2018-03-31T07:49:33.873Z,81.06
2018-03-31T07:52:01.007Z,80.14
2018-03-31T07:54:27.982Z,79.68
2018-03-31T07:56:55.017Z,79.76
2018-03-31T07:59:22.044Z,79.81
2018-03-31T08:01:49.065Z,80.01
2018-03-31T08:04:16.144Z,80.17
2018-03-31T08:06:43.217Z,80.53
2018-03-31T08:09:10.265Z,80.01
2018-03-31T08:11:37.329Z,78.46
2018-03-31T08:14:04.403Z,77.99
2018-03-31T08:16:31.435Z,77.60
2018-03-31T08:21:36.133Z,77.29
2018-03-31T08:24:07.406Z,77.38
2018-03-31T08:26:38.063Z,75.93
2018-03-31T08:29:08.749Z,75.81
2018-03-31T08:31:39.620Z,76.06
2018-03-31T08:34:11.809Z,76.06
2018-03-31T08:36:42.627Z,75.40
2018-03-31T08:39:13.805Z,75.42
2018-03-31T08:41:44.579Z,73.94
2018-03-31T08:44:16.390Z,75.36
2018-03-31T08:46:47.407Z,75.26
2018-03-31T08:49:18.435Z,75.28
2018-03-31T08:51:49.389Z,75.80
2018-03-31T08:54:20.308Z,75.94
2018-03-31T08:56:51.391Z,75.92
2018-03-31T08:59:22.165Z,75.68
2018-03-31T09:01:49.170Z,76.18
2018-03-31T09:04:16.193Z,75.99
2018-03-31T09:06:43.238Z,76.39
2018-03-31T09:09:10.284Z,76.08
2018-03-31T09:11:37.261Z,75.45
2018-03-31T09:14:04.296Z,76.24
2018-03-31T09:16:31.299Z,76.38
2018-03-31T09:18:58.357Z,75.99
2018-03-31T09:21:25.432Z,76.06
2018-03-31T09:23:52.434Z,74.04
2018-03-31T09:26:19.489Z,74.25
2018-03-31T09:28:46.511Z,75.48
2018-03-31T09:31:13.594Z,75.42
2018-03-31T09:33:40.677Z,75.68
2018-03-31T09:36:07.723Z,76.14
2018-03-31T09:38:34.768Z,74.43
2018-03-31T09:41:01.797Z,74.14
2018-03-31T09:43:28.876Z,73.22
2018-03-31T09:45:55.910Z,73.64
2018-03-31T09:48:22.967Z,73.77
2018-03-31T09:50:50.057Z,74.11
2018-03-31T09:53:17.111Z,74.49
2018-03-31T09:55:44.169Z,75.08
2018-03-31T09:58:11.235Z,74.76
2018-03-31T10:00:38.298Z,75.93
2018-03-31T10:03:05.314Z,76.16
2018-03-31T10:05:32.399Z,76.28
2018-03-31T10:07:59.429Z,76.52
2018-03-31T10:10:26.457Z,76.38
2018-03-31T10:12:53.496Z,76.27
2018-03-31T10:15:20.519Z,75.00
2018-03-31T10:17:47.590Z,73.37
2018-03-31T10:20:14.664Z,73.48
2018-03-31T10:22:41.657Z,72.78
2018-03-31T10:25:08.695Z,70.53
2018-03-31T10:27:35.729Z,71.44
2018-03-31T10:30:02.756Z,71.03
2018-03-31T10:32:29.818Z,68.95
2018-03-31T10:34:56.859Z,68.55
2018-03-31T10:37:23.896Z,67.08
2018-03-31T10:39:50.940Z,65.48
2018-03-31T10:42:18.005Z,65.90
2018-03-31T10:44:45.041Z,63.04
2018-03-31T10:47:12.143Z,62.99
2018-03-31T10:49:39.177Z,61.85
2018-03-31T10:52:06.201Z,59.87
2018-03-31T10:54:33.298Z,60.33
2018-03-31T10:57:00.354Z,59.60
2018-03-31T10:59:27.389Z,61.69
2018-03-31T11:01:54.418Z,60.92
2018-03-31T11:04:21.508Z,61.76
2018-03-31T11:06:48.520Z,62.24
2018-03-31T11:09:15.545Z,61.58
2018-03-31T11:11:42.596Z,61.71
2018-03-31T11:14:09.611Z,60.69
2018-03-31T11:16:36.645Z,60.49
2018-03-31T11:19:03.730Z,62.14
2018-03-31T11:21:30.748Z,61.87
2018-03-31T11:23:57.766Z,62.90
2018-03-31T11:26:24.811Z,62.00
2018-03-31T11:28:51.821Z,62.07
2018-03-31T11:31:18.864Z,63.14
2018-03-31T11:33:45.888Z,63.14
2018-03-31T11:36:12.951Z,61.89
2018-03-31T11:38:39.985Z,63.97
2018-03-31T11:41:07.014Z,62.96
2018-03-31T11:43:34.056Z,66.33
2018-03-31T11:46:01.121Z,60.40
2018-03-31T11:48:28.137Z,58.93
2018-03-31T11:50:55.179Z,59.67
2018-03-31T11:53:22.220Z,57.60
2018-03-31T11:55:49.258Z,56.64
2018-03-31T11:58:16.314Z,55.97
2018-03-31T12:00:43.390Z,56.22
2018-03-31T12:03:10.432Z,58.88
2018-03-31T12:05:37.449Z,59.06
2018-03-31T12:08:04.505Z,60.12
2018-03-31T12:10:31.578Z,60.71
2018-03-31T12:12:58.590Z,59.88
2018-03-31T12:15:25.926Z,61.09
2018-03-31T12:17:52.889Z,60.87
2018-03-31T12:20:19.886Z,61.90
2018-03-31T12:22:46.890Z,62.33
2018-03-31T12:25:13.929Z,62.77
2018-03-31T12:27:41.048Z,63.44
2018-03-31T12:30:08.147Z,63.10
2018-03-31T12:32:35.176Z,64.52
2018-03-31T12:35:02.241Z,64.24
2018-03-31T12:37:29.300Z,64.46
2018-03-31T12:39:56.358Z,64.44
2018-03-31T12:42:23.390Z,63.22
2018-03-31T12:44:50.512Z,61.46
2018-03-31T12:47:17.588Z,62.39
2018-03-31T12:49:44.687Z,62.63
2018-03-31T12:52:11.751Z,62.53
2018-03-31T12:54:38.793Z,64.18
2018-03-31T12:57:05.859Z,65.10
2018-03-31T12:59:32.880Z,64.08
2018-03-31T13:02:00.032Z,64.77
2018-03-31T13:04:27.221Z,66.02
2018-03-31T13:06:54.200Z,66.55
2018-03-31T13:09:21.266Z,64.30
2018-03-31T13:11:48.306Z,64.88
2018-03-31T13:14:15.358Z,64.04
2018-03-31T13:16:42.413Z,64.99
2018-03-31T13:19:09.449Z,64.21
2018-03-31T13:21:36.515Z,64.31
2018-03-31T13:24:03.554Z,64.27
2018-03-31T13:26:30.609Z,65.34
2018-03-31T13:28:57.649Z,65.51
2018-03-31T13:31:24.696Z,63.62
2018-03-31T13:33:51.767Z,63.67
2018-03-31T13:36:18.852Z,63.05
2018-03-31T13:38:46.069Z,63.26
2018-03-31T13:41:13.133Z,63.39
2018-03-31T13:43:40.151Z,62.90
2018-03-31T13:46:07.223Z,63.13
2018-03-31T13:48:34.280Z,64.38
2018-03-31T13:51:01.408Z,63.70
2018-03-31T13:53:28.542Z,63.88
2018-03-31T13:55:55.574Z,64.22
2018-03-31T13:58:22.667Z,63.53
2018-03-31T14:00:49.714Z,64.70
2018-03-31T14:03:16.758Z,65.18
2018-03-31T14:05:43.792Z,65.55
2018-03-31T14:08:10.853Z,65.60
2018-03-31T14:10:37.913Z,66.43
2018-03-31T14:13:04.928Z,67.61
2018-03-31T14:15:32.342Z,67.23
2018-03-31T14:17:59.374Z,67.39
2018-03-31T14:20:26.379Z,67.93
2018-03-31T14:22:53.422Z,68.57
2018-03-31T14:25:20.444Z,69.28
2018-03-31T14:27:47.451Z,69.39
2018-03-31T14:30:14.427Z,69.24
2018-03-31T14:32:41.376Z,70.02
2018-03-31T14:35:08.332Z,70.71
2018-03-31T14:37:35.368Z,71.23
2018-03-31T14:40:02.434Z,71.27
2018-03-31T14:42:29.477Z,72.67
2018-03-31T14:44:56.536Z,73.16
2018-03-31T14:50:13.680Z,74.61
2018-03-31T14:52:40.733Z,74.46
2018-03-31T14:55:07.724Z,74.50
2018-03-31T14:57:34.726Z,74.61
2018-03-31T15:00:01.750Z,75.37
2018-03-31T15:02:28.783Z,76.06
2018-03-31T15:04:55.830Z,77.54
2018-03-31T15:07:22.973Z,79.04
2018-03-31T15:09:50.005Z,79.71
2018-03-31T15:12:17.025Z,79.58
2018-03-31T15:14:44.054Z,79.19
2018-03-31T15:17:11.563Z,79.71
2018-03-31T15:19:39.034Z,80.53
2018-03-31T15:22:06.106Z,80.24
2018-03-31T15:24:33.169Z,80.52
2018-03-31T15:27:00.212Z,79.72
2018-03-31T15:29:27.276Z,79.05
2018-03-31T15:31:54.314Z,79.46
2018-03-31T15:34:21.449Z,79.57
2018-03-31T15:36:48.516Z,79.09
2018-03-31T15:39:15.738Z,79.12
2018-03-31T15:41:43.913Z,78.17
2018-03-31T15:44:10.978Z,78.52
2018-03-31T15:46:38.238Z,78.05
2018-03-31T15:49:05.363Z,78.73
2018-03-31T15:51:33.703Z,79.99
2018-03-31T15:54:00.873Z,81.48
2018-03-31T15:56:27.899Z,83.02
2018-03-31T15:58:55.022Z,84.27
2018-03-31T16:01:23.443Z,85.11
2018-03-31T16:03:50.735Z,85.45
2018-03-31T16:06:18.665Z,86.22
2018-03-31T16:08:46.425Z,86.39
2018-03-31T16:11:13.931Z,87.59
2018-03-31T16:13:41.247Z,88.51
2018-03-31T16:16:08.412Z,88.89
2018-03-31T16:18:37.104Z,89.57
2018-03-31T16:21:06.099Z,89.68
2018-03-31T16:23:33.824Z,90.87
2018-03-31T16:26:00.911Z,91.25
2018-03-31T16:28:29.672Z,91.84
2018-03-31T16:30:56.977Z,92.46
2018-03-31T16:33:28.508Z,92.50
2018-03-31T16:35:57.083Z,92.78
2018-03-31T16:38:25.314Z,92.92
2018-03-31T16:40:52.436Z,93.22
2018-03-31T16:43:19.762Z,93.69
2018-03-31T16:45:48.214Z,94.26
2018-03-31T16:48:15.852Z,94.56
2018-03-31T16:50:42.884Z,94.56
2018-03-31T16:53:09.938Z,94.75
2018-03-31T16:55:36.966Z,94.76
2018-03-31T16:58:03.979Z,95.00
2018-03-31T17:00:30.991Z,94.94
2018-03-31T17:02:58.048Z,94.83
2018-03-31T17:05:25.050Z,94.88
2018-03-31T17:07:52.064Z,95.16
2018-03-31T17:10:19.021Z,95.30
2018-03-31T17:12:46.035Z,95.53
2018-03-31T17:15:13.155Z,95.74
2018-03-31T17:17:40.190Z,95.95
2018-03-31T17:20:07.196Z,96.02
2018-03-31T17:22:34.286Z,96.07
2018-03-31T17:25:01.288Z,95.99
2018-03-31T17:27:28.338Z,96.07
2018-03-31T17:29:55.426Z,96.32
2018-03-31T17:32:22.752Z,96.28
2018-03-31T17:34:49.726Z,96.34
2018-03-31T17:37:16.710Z,96.37
2018-03-31T17:39:43.685Z,96.47
2018-03-31T17:42:10.668Z,96.65
2018-03-31T17:44:37.647Z,96.72
2018-03-31T17:47:04.705Z,96.76
2018-03-31T17:49:31.730Z,96.77
2018-03-31T17:51:58.778Z,96.80
2018-03-31T17:54:25.819Z,96.80
2018-03-31T17:56:52.828Z,96.76
2018-03-31T17:59:19.861Z,96.83
2018-03-31T18:01:46.922Z,96.73
2018-03-31T18:04:13.881Z,96.63
2018-03-31T18:06:40.873Z,96.46
2018-03-31T18:09:07.895Z,96.51
2018-03-31T18:11:34.907Z,96.66
2018-03-31T18:14:01.987Z,96.74
2018-03-31T18:16:28.951Z,96.57
2018-03-31T18:18:55.909Z,96.35
2018-03-31T18:21:22.964Z,96.32
2018-03-31T18:23:49.954Z,96.50
2018-03-31T18:26:16.929Z,96.70
2018-03-31T18:28:43.917Z,96.84
2018-03-31T18:31:10.918Z,96.98
2018-03-31T18:33:37.942Z,97.10
2018-03-31T18:36:05.365Z,97.14
2018-03-31T18:38:32.414Z,97.14
2018-03-31T18:40:59.442Z,97.08
2018-03-31T18:43:26.527Z,97.13
2018-03-31T18:45:53.590Z,97.11
2018-03-31T18:48:20.638Z,97.23
2018-03-31T18:50:47.695Z,97.31
2018-03-31T18:53:14.822Z,97.42
2018-03-31T18:55:41.893Z,97.49
2018-03-31T18:58:09.107Z,97.49
2018-03-31T19:00:36.172Z,97.34
2018-03-31T19:03:03.231Z,97.24
2018-03-31T19:05:30.270Z,97.27
2018-03-31T19:07:57.312Z,97.37
2018-03-31T19:10:24.358Z,97.42
2018-03-31T19:12:51.444Z,97.38
2018-03-31T19:15:18.553Z,97.42
2018-03-31T19:17:45.604Z,97.57
2018-03-31T19:20:17.603Z,97.63
2018-03-31T19:22:44.683Z,97.67
2018-03-31T19:25:17.231Z,97.37
2018-03-31T19:27:44.275Z,96.49
2018-03-31T19:30:11.326Z,95.90
2018-03-31T19:32:38.362Z,95.79
2018-03-31T19:35:05.379Z,96.02
2018-03-31T19:37:32.427Z,96.16
2018-03-31T19:39:59.515Z,96.10
2018-03-31T19:42:26.534Z,96.15
2018-03-31T19:44:53.499Z,96.41
2018-03-31T19:47:20.615Z,96.62
2018-03-31T19:49:47.621Z,96.69
2018-03-31T19:52:14.937Z,96.75
2018-03-31T19:54:42.047Z,96.74
2018-03-31T19:57:09.074Z,96.57
2018-03-31T19:59:36.110Z,96.52
2018-03-31T20:02:03.225Z,96.71
2018-03-31T20:04:30.531Z,96.74
2018-03-31T20:06:57.570Z,96.63
2018-03-31T20:09:24.655Z,96.67
2018-03-31T20:11:51.706Z,96.66
2018-03-31T20:14:18.746Z,96.62
2018-03-31T20:16:45.808Z,96.61
2018-03-31T20:19:12.899Z,96.64
2018-03-31T20:21:39.991Z,96.75
2018-03-31T20:24:07.046Z,96.75
2018-03-31T20:26:34.143Z,96.74
2018-03-31T20:29:01.240Z,96.88
2018-03-31T20:31:28.390Z,96.95
2018-03-31T20:33:55.448Z,96.87
2018-03-31T20:36:22.483Z,96.94
2018-03-31T20:38:49.520Z,97.03
2018-03-31T20:41:16.644Z,97.06
2018-03-31T20:43:43.718Z,97.03
2018-03-31T20:46:10.797Z,97.06
2018-03-31T20:48:37.872Z,97.19
2018-03-31T20:51:04.987Z,97.27
2018-03-31T20:53:32.033Z,97.30
2018-03-31T20:56:12.406Z,97.43
2018-03-31T20:58:39.466Z,97.54
2018-03-31T21:01:06.492Z,97.58
2018-03-31T21:03:33.553Z,97.67
2018-03-31T21:06:00.947Z,97.77
2018-03-31T21:08:28.245Z,97.88
2018-03-31T21:10:55.558Z,97.90
2018-03-31T21:13:22.659Z,97.69
2018-03-31T21:15:49.709Z,97.18
2018-03-31T21:18:16.750Z,96.81
2018-03-31T21:20:44.128Z,96.56
2018-03-31T21:23:11.146Z,97.05
2018-03-31T21:25:38.444Z,97.16
2018-03-31T21:28:05.796Z,97.07
2018-03-31T21:30:33.134Z,97.08
2018-03-31T21:33:00.253Z,97.26
2018-03-31T21:35:27.416Z,97.34
2018-03-31T21:37:55.680Z,97.30
2018-03-31T21:40:31.428Z,97.12
2018-03-31T21:43:05.808Z,96.92
2018-03-31T21:45:33.315Z,96.54
2018-03-31T21:48:00.787Z,96.71
2018-03-31T21:50:28.231Z,96.76
2018-03-31T21:52:56.178Z,97.01
2018-03-31T21:55:23.480Z,97.17
2018-03-31T21:57:50.535Z,96.92
2018-03-31T22:00:17.614Z,96.73
2018-03-31T22:02:44.704Z,96.65
2018-03-31T22:05:11.760Z,96.66
2018-03-31T22:07:38.900Z,96.65
2018-03-31T22:10:05.949Z,96.75
2018-03-31T22:12:32.973Z,96.84
2018-03-31T22:15:05.481Z,96.89
2018-03-31T22:17:32.746Z,97.01
2018-03-31T22:19:59.771Z,97.07
2018-03-31T22:22:26.800Z,97.14
2018-03-31T22:24:53.864Z,97.32
2018-03-31T22:27:20.900Z,97.49
2018-03-31T22:29:47.948Z,97.46
2018-03-31T22:32:15.014Z,97.38
2018-03-31T22:34:42.036Z,97.43
2018-03-31T22:37:09.113Z,97.42
2018-03-31T22:39:36.135Z,97.49
2018-03-31T22:42:03.172Z,97.39
2018-03-31T22:44:30.252Z,97.25
2018-03-31T22:46:57.300Z,96.95
2018-03-31T22:49:24.311Z,96.83
2018-03-31T22:51:51.401Z,96.89
2018-03-31T22:54:18.414Z,96.94
2018-03-31T22:56:45.425Z,96.93
2018-03-31T22:59:12.544Z,97.12
2018-03-31T23:01:39.624Z,97.14
2018-03-31T23:04:06.720Z,97.15
2018-03-31T23:06:33.768Z,97.18
2018-03-31T23:09:00.789Z,97.17
2018-03-31T23:11:27.857Z,97.23
2018-03-31T23:13:54.891Z,97.07
2018-03-31T23:16:21.974Z,96.98
2018-03-31T23:18:48.990Z,96.80
2018-03-31T23:21:16.002Z,95.36
2018-03-31T23:23:43.090Z,95.48
2018-03-31T23:26:10.090Z,95.36
2018-03-31T23:28:37.126Z,95.62
2018-03-31T23:31:04.200Z,95.62
2018-03-31T23:33:31.240Z,95.72
2018-03-31T23:35:58.301Z,94.82
2018-03-31T23:38:25.398Z,94.88
2018-03-31T23:40:52.433Z,94.19
2018-03-31T23:43:19.459Z,93.10
2018-03-31T23:45:46.505Z,91.22
2018-03-31T23:48:13.558Z,88.36
2018-03-31T23:50:40.625Z,86.98
2018-03-31T23:53:07.860Z,88.21
2018-03-31T23:55:34.894Z,88.98
2018-03-31T23:58:01.964Z,87.54
